Time;durP1;ratioP1;P1;durP2;ratioP2;P2;SDS_P1;SDS_P2;PMS_P1;PMS_P2;Temp;Humidity;BMP_temperature;BMP_pressure;BME280_temperature;BME280_humidity;BME280_pressure;Samples;Min_cycle;Max_cycle;Signal;HPM_P1;HPM_P2
2022/03/12 00:01:27;;;;;;;8.52;4.13;;;;;;;1.72;51.69;102557.06;4801815;29;20356;-77
2022/03/12 00:03:54;;;;;;;7.57;3.92;;;;;;;1.64;52.14;102547.81;4809189;29;20034;-77
2022/03/12 00:06:22;;;;;;;9.70;4.35;;;;;;;1.63;52.13;102567.34;4807975;29;20117;-77
2022/03/12 00:08:51;;;;;;;9.43;3.72;;;;;;;1.64;52.46;102563.72;4808749;29;20102;-77
2022/03/12 00:11:19;;;;;;;8.23;3.90;;;;;;;1.71;52.39;102561.53;4824334;29;20046;-77
2022/03/12 00:13:46;;;;;;;6.93;3.47;;;;;;;1.65;52.38;102560.09;4825556;29;20376;-77
2022/03/12 00:16:14;;;;;;;10.18;3.58;;;;;;;1.59;52.76;102551.69;4823251;29;20585;-77
2022/03/12 00:18:44;;;;;;;7.30;4.00;;;;;;;1.59;52.82;102551.69;4808181;29;20031;-77
2022/03/12 00:21:12;;;;;;;6.97;3.80;;;;;;;1.54;52.69;102543.19;4808592;29;20038;-77
2022/03/12 00:23:38;;;;;;;10.43;3.80;;;;;;;1.59;52.94;102554.34;4824134;29;20026;-77
2022/03/12 00:26:03;;;;;;;6.95;3.78;;;;;;;1.52;52.94;102555.69;4824567;29;20042;-77
2022/03/12 00:28:29;;;;;;;8.05;4.07;;;;;;;1.61;52.94;102555.09;4825828;29;20042;-77
2022/03/12 00:30:55;;;;;;;9.25;4.20;;;;;;;1.57;52.79;102553.59;4822181;29;20054;-76
2022/03/12 00:33:22;;;;;;;7.72;3.63;;;;;;;1.58;52.75;102557.94;4809096;29;20031;-77
2022/03/12 00:35:49;;;;;;;8.80;3.83;;;;;;;1.57;53.03;102558.91;4813146;29;20158;-77
2022/03/12 00:38:16;;;;;;;8.40;4.38;;;;;;;1.60;52.96;102558.72;4803279;29;20102;-77
2022/03/12 00:40:42;;;;;;;8.55;4.07;;;;;;;1.59;53.23;102565.84;4817118;29;20034;-77
2022/03/12 00:43:09;;;;;;;7.95;3.80;;;;;;;1.44;53.17;102545.56;4823062;29;20042;-77
2022/03/12 00:45:35;;;;;;;9.43;4.30;;;;;;;1.52;53.05;102564.50;4817985;29;20038;-77
2022/03/12 00:48:00;;;;;;;8.90;4.25;;;;;;;1.18;53.10;102518.88;4790750;29;20034;-77
2022/03/12 00:50:25;;;;;;;7.82;4.18;;;;;;;1.50;53.42;102566.41;4797030;29;20122;-77
2022/03/12 00:52:51;;;;;;;6.10;3.70;;;;;;;1.47;53.52;102560.44;4823339;29;20049;-77
2022/03/12 00:55:16;;;;;;;6.85;3.50;;;;;;;1.41;53.45;102561.69;4823905;29;20073;-77
2022/03/12 00:57:42;;;;;;;7.13;3.85;;;;;;;1.45;53.55;102559.69;4807249;29;20202;-77
2022/03/12 01:00:17;;;;;;;8.65;3.95;;;;;;;1.43;53.59;102548.34;4808428;29;20038;-77
2022/03/12 01:02:42;;;;;;;;;;;;;;;1.47;53.82;102556.00;4824144;29;20114;-77
2022/03/12 01:05:08;;;;;;;6.88;3.85;;;;;;;1.35;53.65;102541.69;4794256;29;20007;-77
2022/03/12 01:07:34;;;;;;;6.88;3.80;;;;;;;1.31;53.85;102528.72;4805759;29;20064;-77
2022/03/12 01:09:59;;;;;;;8.15;3.90;;;;;;;1.40;53.51;102541.41;4805321;29;20407;-77
2022/03/12 01:12:25;;;;;;;6.25;3.45;;;;;;;1.45;53.82;102544.59;4806731;29;20059;-77
2022/03/12 01:14:52;;;;;;;8.48;4.03;;;;;;;1.44;54.00;102552.69;4807942;29;20113;-77
2022/03/12 01:17:17;;;;;;;7.55;3.88;;;;;;;1.43;54.05;102543.03;4789922;29;20523;-77
2022/03/12 01:19:42;;;;;;;7.15;4.20;;;;;;;1.34;53.79;102555.06;4777909;29;20046;-77
2022/03/12 01:22:13;;;;;;;7.68;3.90;;;;;;;1.40;53.66;102557.31;4808915;29;20389;-77
2022/03/12 01:24:40;;;;;;;6.03;3.67;;;;;;;1.40;53.69;102558.19;4827064;29;20034;-76
2022/03/12 01:27:05;;;;;;;8.10;3.97;;;;;;;1.34;53.78;102529.38;4828577;29;20031;-76
2022/03/12 01:29:31;;;;;;;9.20;4.00;;;;;;;1.40;53.89;102554.69;4812779;29;20049;-78
2022/03/12 01:31:56;;;;;;;7.68;3.03;;;;;;;1.30;53.67;102548.25;4814357;29;20034;-77
2022/03/12 01:34:21;;;;;;;14.40;4.10;;;;;;;1.42;53.76;102552.75;4811449;29;20084;-77
2022/03/12 01:36:47;;;;;;;8.60;3.65;;;;;;;1.28;54.18;102544.81;4822707;29;20053;-77
2022/03/12 01:39:12;;;;;;;10.82;3.75;;;;;;;1.25;54.00;102534.41;4812238;29;20030;-77
2022/03/12 01:41:42;;;;;;;7.05;3.70;;;;;;;1.23;54.04;102531.88;4812938;29;20030;-77
2022/03/12 01:44:09;;;;;;;10.23;4.07;;;;;;;1.22;54.23;102537.25;4813869;29;20034;-78
2022/03/12 01:46:39;;;;;;;6.88;3.90;;;;;;;1.26;54.49;102542.28;4827465;29;20030;-77
2022/03/12 01:49:18;;;;;;;8.13;4.05;;;;;;;1.27;54.34;102537.81;4829517;29;20036;-77
2022/03/12 01:51:46;;;;;;;8.00;3.85;;;;;;;1.21;54.56;102533.75;4826454;29;20069;-77
2022/03/12 01:54:17;;;;;;;8.73;4.15;;;;;;;1.12;54.60;102527.22;4826651;29;20023;-77
2022/03/12 01:56:45;;;;;;;7.60;3.97;;;;;;;1.17;54.66;102525.13;4827035;29;20037;-77
2022/03/12 01:59:10;;;;;;;8.55;3.75;;;;;;;1.11;54.61;102516.72;4816259;29;20054;-78
2022/03/12 02:01:36;;;;;;;7.90;3.65;;;;;;;1.17;54.96;102521.63;4810852;29;20369;-77
2022/03/12 02:04:02;;;;;;;8.10;4.07;;;;;;;1.07;55.11;102515.22;4808817;29;20049;-77
2022/03/12 02:06:28;;;;;;;6.75;3.80;;;;;;;1.15;54.71;102510.25;4826918;29;20026;-77
2022/03/12 02:08:57;;;;;;;7.88;3.85;;;;;;;1.15;54.77;102507.63;4831712;29;20086;-77
2022/03/12 02:11:27;;;;;;;9.02;3.83;;;;;;;1.18;54.76;102508.28;4831594;29;20022;-77
2022/03/12 02:14:08;;;;;;;7.68;3.90;;;;;;;1.11;55.04;102508.75;4828875;29;20033;-77
2022/03/12 02:16:34;;;;;;;7.55;3.60;;;;;;;1.11;54.93;102506.97;4827855;29;20022;-77
2022/03/12 02:19:00;;;;;;;6.65;3.70;;;;;;;1.16;55.15;102504.03;4827172;29;20038;-77
2022/03/12 02:21:43;;;;;;;8.23;3.80;;;;;;;1.12;54.89;102506.00;4808596;29;20041;-78
2022/03/12 02:24:10;;;;;;;7.55;3.92;;;;;;;1.15;55.12;102497.84;4825789;29;20122;-77
2022/03/12 02:26:38;;;;;;;5.55;3.33;;;;;;;1.23;54.98;102507.16;4825695;29;20632;-78
2022/03/12 02:29:06;;;;;;;9.93;3.97;;;;;;;1.22;54.71;102506.28;4826899;29;20034;-77
2022/03/12 02:31:31;;;;;;;7.78;3.95;;;;;;;1.25;55.09;102503.44;4795429;29;20027;-77
2022/03/12 02:34:01;;;;;;;8.40;4.10;;;;;;;1.17;54.91;102493.31;4825930;29;20122;-77
2022/03/12 02:36:28;;;;;;;8.82;4.35;;;;;;;1.17;55.19;102489.81;4810554;29;20385;-77
2022/03/12 02:38:55;;;;;;;10.48;4.22;;;;;;;1.17;55.13;102495.13;4805309;29;20034;-77
2022/03/12 02:41:23;;;;;;;8.23;4.13;;;;;;;1.20;55.05;102499.38;4810350;29;20038;-77
2022/03/12 02:43:48;;;;;;;8.68;3.70;;;;;;;1.23;54.90;102501.84;4826259;29;20030;-77
2022/03/12 02:46:14;;;;;;;9.60;3.83;;;;;;;1.15;54.89;102497.00;4826703;29;20034;-77
2022/03/12 02:48:43;;;;;;;7.60;3.97;;;;;;;1.17;54.90;102487.16;4809810;29;20034;-77
2022/03/12 02:51:09;;;;;;;9.68;4.00;;;;;;;1.17;55.18;102484.53;4810096;29;20415;-77
2022/03/12 02:53:34;;;;;;;7.88;3.92;;;;;;;1.28;55.01;102491.78;4801770;29;20035;-77
2022/03/12 02:56:00;;;;;;;9.80;3.92;;;;;;;1.16;54.95;102472.22;4810899;29;20030;-77
2022/03/12 02:58:27;;;;;;;6.68;3.75;;;;;;;1.17;55.17;102490.66;4814676;29;20085;-77
2022/03/12 03:00:53;;;;;;;8.57;4.05;;;;;;;1.18;55.41;102487.06;4801570;29;20058;-78
2022/03/12 03:03:19;;;;;;;6.50;3.72;;;;;;;1.08;55.46;102469.19;4814433;29;20033;-77
2022/03/12 03:05:50;;;;;;;8.85;4.22;;;;;;;1.16;55.67;102488.13;4824507;29;20034;-78
2022/03/12 03:08:21;;;;;;;8.57;4.25;;;;;;;1.18;55.75;102475.59;4844467;29;20448;-77
2022/03/12 03:10:49;;;;;;;8.85;3.95;;;;;;;0.97;56.06;102471.66;4843515;29;20524;-77
2022/03/12 03:13:18;;;;;;;6.03;3.65;;;;;;;1.09;56.16;102486.78;4844338;29;20031;-78
2022/03/12 03:16:07;;;;;;;9.75;3.97;;;;;;;0.99;56.49;102485.66;4829400;29;20022;-78
2022/03/12 03:18:38;;;;;;;8.63;4.18;;;;;;;0.81;56.84;102462.00;4826238;29;20085;-77
2022/03/12 03:21:07;;;;;;;6.75;3.60;;;;;;;0.94;56.85;102473.56;4813026;29;20094;-78
2022/03/12 03:23:32;;;;;;;8.05;3.70;;;;;;;0.90;56.64;102473.84;4807601;29;20054;-77
2022/03/12 03:26:00;;;;;;;8.52;4.15;;;;;;;0.89;56.62;102486.25;4791266;29;20335;-78
2022/03/12 03:28:25;;;;;;;8.73;3.95;;;;;;;0.92;57.00;102486.03;4808055;29;20351;-77
2022/03/12 03:30:51;;;;;;;9.05;3.60;;;;;;;0.89;57.12;102474.78;4823205;29;20072;-77
2022/03/12 03:33:23;;;;;;;8.18;4.15;;;;;;;0.95;57.04;102482.34;4824932;29;20057;-77
2022/03/12 03:35:50;;;;;;;7.38;3.90;;;;;;;0.89;57.17;102480.94;4824546;29;20034;-77
2022/03/12 03:38:17;;;;;;;7.97;3.80;;;;;;;0.86;56.96;102478.50;4825307;29;20091;-77
2022/03/12 03:40:44;;;;;;;7.68;3.55;;;;;;;0.81;57.12;102483.22;4824770;29;20046;-77
2022/03/12 03:43:15;;;;;;;8.88;3.90;;;;;;;0.63;57.66;102466.66;4809094;29;20045;-77
2022/03/12 03:45:46;;;;;;;8.32;4.13;;;;;;;0.59;58.29;102477.50;4809652;29;20034;-77
2022/03/12 03:48:16;;;;;;;6.95;3.90;;;;;;;0.50;58.55;102481.59;4810496;29;20031;-77
2022/03/12 03:50:43;;;;;;;8.38;3.70;;;;;;;0.56;58.47;102477.69;4791177;29;20074;-77
2022/03/12 03:53:11;;;;;;;8.98;4.10;;;;;;;0.62;58.32;102475.53;4794224;29;20039;-77
2022/03/12 03:55:36;;;;;;;10.40;4.22;;;;;;;0.49;58.50;102453.38;4807137;29;20035;-77
2022/03/12 03:58:03;;;;;;;9.45;4.25;;;;;;;0.68;58.25;102472.50;4812973;29;20754;-77
2022/03/12 04:00:29;;;;;;;8.15;3.88;;;;;;;0.73;57.89;102474.00;4825702;29;20038;-77
2022/03/12 04:03:02;;;;;;;9.50;3.85;;;;;;;0.70;57.98;102467.13;4824678;29;20120;-77
2022/03/12 04:05:34;;;;;;;10.30;4.10;;;;;;;0.72;57.91;102467.88;4811156;29;20045;-77
2022/03/12 04:08:00;;;;;;;7.28;3.85;;;;;;;0.70;58.18;102467.97;4827462;29;20454;-77
2022/03/12 04:10:27;;;;;;;8.68;4.40;;;;;;;0.77;57.81;102464.94;4825069;29;20053;-77
2022/03/12 04:12:52;;;;;;;9.73;4.53;;;;;;;0.83;57.34;102460.13;4822003;29;20034;-77
2022/03/12 04:15:17;;;;;;;8.45;4.40;;;;;;;0.77;57.53;102465.81;4809730;29;20453;-77
2022/03/12 04:17:44;;;;;;;10.13;4.68;;;;;;;0.87;57.40;102466.09;4828314;29;20042;-77
2022/03/12 04:20:13;;;;;;;7.65;4.05;;;;;;;0.90;57.22;102452.66;4834036;29;20034;-77
2022/03/12 04:22:41;;;;;;;8.48;3.85;;;;;;;0.90;57.11;102450.84;4808926;29;20045;-77
2022/03/12 04:25:13;;;;;;;9.48;4.20;;;;;;;0.94;56.74;102447.03;4781349;29;20458;-77
2022/03/12 04:27:42;;;;;;;7.43;4.07;;;;;;;1.00;56.96;102460.88;4790163;29;20039;-77
2022/03/12 04:30:09;;;;;;;6.78;3.88;;;;;;;1.01;57.53;102459.91;4791486;29;20031;-77
2022/03/12 04:32:34;;;;;;;8.23;3.83;;;;;;;0.96;57.51;102454.03;4806337;29;20026;-77
2022/03/12 04:34:59;;;;;;;7.72;4.10;;;;;;;0.97;57.29;102455.75;4795849;29;20064;-77
2022/03/12 04:37:25;;;;;;;10.90;4.45;;;;;;;1.00;57.23;102459.06;4808396;29;20664;-77
2022/03/12 04:39:50;;;;;;;8.68;4.38;;;;;;;0.94;56.80;102441.75;4824217;29;20121;-77
2022/03/12 04:42:21;;;;;;;11.05;4.20;;;;;;;1.07;56.95;102454.22;4792168;29;20038;-77
2022/03/12 04:44:46;;;;;;;8.85;4.18;;;;;;;1.05;56.06;102453.47;4824766;29;20030;-77
2022/03/12 04:47:12;;;;;;;7.53;3.92;;;;;;;0.95;56.73;102445.25;4823667;29;20045;-77
2022/03/12 04:49:37;;;;;;;7.65;3.55;;;;;;;0.98;57.01;102446.84;4810306;29;20034;-77
2022/03/12 04:52:04;;;;;;;9.85;3.95;;;;;;;0.87;57.02;102444.88;4808662;29;20054;-77
2022/03/12 04:54:33;;;;;;;10.70;4.30;;;;;;;0.90;57.05;102456.16;4823782;29;20125;-77
2022/03/12 04:56:58;;;;;;;14.07;4.00;;;;;;;0.78;57.60;102453.41;4808186;29;20022;-77
2022/03/12 04:59:24;;;;;;;8.82;4.05;;;;;;;0.75;57.92;102453.59;4808071;29;20183;-77
2022/03/12 05:01:49;;;;;;;11.77;4.22;;;;;;;0.58;58.56;102444.03;4824693;29;20378;-77
2022/03/12 05:04:15;;;;;;;9.65;3.85;;;;;;;0.43;59.34;102446.69;4824723;29;20450;-77
2022/03/12 05:06:40;;;;;;;11.48;4.55;;;;;;;0.41;59.21;102448.56;4807520;29;20047;-77
2022/03/12 05:09:06;;;;;;;7.45;4.15;;;;;;;0.32;60.17;102445.59;4824223;29;20419;-77
2022/03/12 05:11:38;;;;;;;9.30;4.22;;;;;;;0.30;60.06;102444.84;4808180;29;20053;-77
2022/03/12 05:14:04;;;;;;;7.90;4.10;;;;;;;0.29;60.36;102440.50;4796502;29;20041;-77
2022/03/12 05:16:30;;;;;;;10.57;4.10;;;;;;;0.23;60.16;102428.47;4813099;29;20495;-77
2022/03/12 05:18:58;;;;;;;9.27;4.10;;;;;;;0.25;60.73;102441.63;4795911;29;20038;-77
2022/03/12 05:21:24;;;;;;;7.88;4.25;;;;;;;0.26;60.75;102452.09;4810978;29;20074;-77
2022/03/12 05:23:50;;;;;;;9.07;4.82;;;;;;;0.25;60.96;102450.41;4795294;29;20043;-77
2022/03/12 05:26:15;;;;;;;9.07;4.50;;;;;;;0.23;61.39;102452.28;4792977;29;20038;-76
2022/03/12 05:28:41;;;;;;;8.40;4.20;;;;;;;0.25;61.01;102445.13;4821900;29;20116;-77
2022/03/12 05:31:09;;;;;;;9.10;4.25;;;;;;;0.28;61.24;102452.88;4807300;29;20038;-77
2022/03/12 05:33:35;;;;;;;8.65;4.18;;;;;;;0.29;61.04;102448.44;4810300;29;20441;-77
2022/03/12 05:36:03;;;;;;;9.65;4.43;;;;;;;0.19;61.83;102445.47;4802742;29;20054;-77
2022/03/12 05:38:34;;;;;;;8.15;4.07;;;;;;;0.10;61.85;102446.03;4828653;29;20334;-77
2022/03/12 05:41:00;;;;;;;10.77;4.50;;;;;;;0.01;62.05;102433.34;4827830;29;20365;-77
2022/03/12 05:43:26;;;;;;;11.13;4.18;;;;;;;0.07;62.73;102444.44;4841810;29;20030;-77
2022/03/12 05:45:52;;;;;;;10.05;4.32;;;;;;;0.07;62.09;102436.50;4844900;29;20041;-77
2022/03/12 05:48:19;;;;;;;8.50;4.30;;;;;;;0.20;62.14;102450.69;4816975;29;20030;-77
2022/03/12 05:50:51;;;;;;;8.88;4.13;;;;;;;0.16;62.01;102432.44;4837122;29;20032;-77
2022/03/12 05:53:19;;;;;;;10.45;4.13;;;;;;;0.39;61.21;102446.94;4846666;29;20057;-77
2022/03/12 05:55:47;;;;;;;10.35;4.72;;;;;;;0.35;61.51;102433.03;4848335;29;20423;-77
2022/03/12 05:58:15;;;;;;;8.90;4.38;;;;;;;0.45;61.67;102438.63;4851605;29;20061;-77
2022/03/12 06:00:41;;;;;;;8.55;4.50;;;;;;;0.36;61.86;102432.06;4830671;29;20046;-77
2022/03/12 06:03:10;;;;;;;9.10;4.57;;;;;;;0.45;61.09;102444.75;4795028;29;20458;-78
2022/03/12 06:05:39;;;;;;;10.77;4.55;;;;;;;0.47;61.13;102431.44;4824642;29;20087;-77
2022/03/12 06:08:06;;;;;;;7.93;4.35;;;;;;;0.54;61.03;102443.38;4828238;29;20454;-77
2022/03/12 06:10:37;;;;;;;9.57;4.60;;;;;;;0.62;60.85;102437.59;4800845;29;20042;-77
2022/03/12 06:13:05;;;;;;;8.63;4.22;;;;;;;0.74;60.27;102438.66;4809406;29;20042;-77
2022/03/12 06:15:31;;;;;;;10.55;4.25;;;;;;;0.79;60.44;102433.91;4809431;29;20030;-77
2022/03/12 06:17:58;;;;;;;10.45;4.20;;;;;;;0.82;60.41;102434.56;4802868;29;20502;-77
2022/03/12 06:20:24;;;;;;;8.27;4.55;;;;;;;0.77;60.28;102425.22;4811221;29;20035;-77
2022/03/12 06:22:52;;;;;;;8.60;3.63;;;;;;;0.76;60.11;102412.88;4808557;29;20465;-77
2022/03/12 06:25:18;;;;;;;8.88;4.85;;;;;;;0.98;59.91;102431.78;4812574;29;20517;-78
2022/03/12 06:27:54;;;;;;;10.18;4.25;;;;;;;0.94;59.72;102440.91;4826600;29;20102;-77
2022/03/12 06:30:21;;;;;;;8.50;4.50;;;;;;;1.09;59.54;102424.03;4826746;29;20034;-79
2022/03/12 06:32:48;;;;;;;10.60;4.78;;;;;;;1.14;59.47;102436.97;4835645;29;20114;-80
2022/03/12 06:35:16;;;;;;;8.73;4.30;;;;;;;1.18;58.97;102418.13;4815463;29;20034;-79
2022/03/12 06:37:42;;;;;;;13.07;4.68;;;;;;;1.44;58.24;102435.97;4826662;29;20030;-79
2022/03/12 06:40:11;;;;;;;8.43;4.43;;;;;;;1.48;58.28;102426.84;4805232;29;20035;-77
2022/03/12 06:42:38;;;;;;;9.95;4.47;;;;;;;1.55;57.64;102407.78;4809594;29;20481;-79
2022/03/12 06:45:04;;;;;;;9.50;4.63;;;;;;;1.80;57.07;102422.94;4811145;29;20506;-81
2022/03/12 06:47:29;;;;;;;14.10;4.93;;;;;;;1.85;56.25;102427.91;4828435;29;20035;-78
2022/03/12 06:49:57;;;;;;;14.07;5.07;;;;;;;2.03;56.00;102429.34;4827039;29;20045;-79
2022/03/12 06:52:24;;;;;;;17.90;6.18;;;;;;;2.10;55.29;102421.81;4827611;29;20042;-79
2022/03/12 06:54:51;;;;;;;9.45;4.80;;;;;;;2.19;55.49;102409.75;4809869;29;20495;-79
2022/03/12 06:57:17;;;;;;;13.40;5.50;;;;;;;2.28;54.61;102425.84;4827206;29;20049;-79
2022/03/12 06:59:42;;;;;;;10.70;4.88;;;;;;;2.38;53.95;102422.56;4809787;29;20137;-79
2022/03/12 07:02:08;;;;;;;14.15;6.15;;;;;;;2.53;53.61;102427.69;4807406;29;20030;-79
2022/03/12 07:04:34;;;;;;;10.65;5.55;;;;;;;2.61;53.06;102421.81;4826197;29;20342;-79
2022/03/12 07:07:01;;;;;;;8.65;4.93;;;;;;;2.65;52.66;102410.03;4810103;29;20038;-79
2022/03/12 07:09:27;;;;;;;14.10;5.38;;;;;;;2.89;51.26;102425.22;4809976;29;20106;-79
2022/03/12 07:11:56;;;;;;;11.65;4.35;;;;;;;2.95;51.64;102404.34;4794875;29;20592;-79
2022/03/12 07:14:21;;;;;;;8.43;4.38;;;;;;;3.23;50.61;102421.81;4793034;29;20031;-78
2022/03/12 07:16:47;;;;;;;7.97;4.95;;;;;;;3.36;50.28;102431.56;4820130;29;20036;-79
2022/03/12 07:19:12;;;;;;;8.75;4.32;;;;;;;3.38;48.60;102427.84;4835578;29;20037;-79
2022/03/12 07:21:37;;;;;;;9.73;4.43;;;;;;;3.49;49.13;102424.38;4812335;29;20050;-79
2022/03/12 07:24:05;;;;;;;12.15;5.32;;;;;;;3.65;48.92;102432.94;4811792;29;20041;-79
2022/03/12 07:26:30;;;;;;;17.70;4.85;;;;;;;3.67;48.56;102407.03;4830549;29;20164;-78
2022/03/12 07:28:56;;;;;;;13.82;5.80;;;;;;;3.86;47.93;102413.66;4831570;29;20046;-79
2022/03/12 07:31:22;;;;;;;22.98;8.85;;;;;;;3.83;47.34;102401.41;4825845;29;20296;-78
2022/03/12 07:33:47;;;;;;;11.90;4.32;;;;;;;4.01;46.81;102415.16;4808722;29;20030;-78
2022/03/12 07:36:13;;;;;;;12.80;6.35;;;;;;;4.16;46.73;102415.78;4825434;29;20035;-78
2022/03/12 07:38:38;;;;;;;8.80;4.25;;;;;;;4.15;45.44;102414.09;4808841;29;20526;-77
2022/03/12 07:41:04;;;;;;;11.27;4.80;;;;;;;4.30;45.56;102412.91;4823932;29;20128;-77
2022/03/12 07:43:29;;;;;;;9.27;4.72;;;;;;;4.44;44.80;102414.53;4825134;29;20122;-77
2022/03/12 07:45:56;;;;;;;9.30;4.13;;;;;;;4.55;44.57;102411.84;4804044;29;20157;-77
2022/03/12 07:48:22;;;;;;;10.98;3.58;;;;;;;4.63;44.64;102413.91;4840020;29;20042;-78
2022/03/12 07:50:47;;;;;;;9.05;3.70;;;;;;;4.79;43.64;102413.56;4822228;29;20034;-79
2022/03/12 07:53:13;;;;;;;9.07;3.70;;;;;;;4.80;43.25;102418.78;4803057;29;20066;-79
2022/03/12 07:55:40;;;;;;;9.35;3.90;;;;;;;4.93;42.66;102411.50;4795484;29;20064;-78
2022/03/12 07:58:06;;;;;;;10.23;3.53;;;;;;;4.98;40.76;102412.94;4807550;29;20465;-78
2022/03/12 08:00:31;;;;;;;11.13;4.07;;;;;;;5.17;41.69;102416.66;4812693;29;20934;-79
2022/03/12 08:02:57;;;;;;;8.05;3.80;;;;;;;5.26;41.60;102417.72;4842127;29;20160;-78
2022/03/12 08:05:25;;;;;;;6.47;3.60;;;;;;;5.44;41.04;102417.22;4834724;29;20044;-78
2022/03/12 08:07:54;;;;;;;7.45;4.38;;;;;;;5.43;40.30;102405.69;4826344;29;20030;-78
2022/03/12 08:10:21;;;;;;;8.60;3.72;;;;;;;5.62;40.78;102416.53;4805807;29;20106;-78
2022/03/12 08:12:48;;;;;;;10.82;3.97;;;;;;;5.72;40.05;102416.63;4823804;29;20054;-78
2022/03/12 08:15:15;;;;;;;9.40;4.05;;;;;;;5.77;39.75;102410.91;4824571;29;20102;-78
2022/03/12 08:17:41;;;;;;;7.10;3.78;;;;;;;5.81;39.60;102393.63;4825344;29;20034;-78
2022/03/12 08:20:08;;;;;;;9.90;3.58;;;;;;;5.85;39.48;102393.25;4808288;29;20447;-78
2022/03/12 08:22:35;;;;;;;9.57;4.00;;;;;;;5.92;39.15;102396.25;4824591;29;20042;-79
2022/03/12 08:25:02;;;;;;;10.52;3.72;;;;;;;6.07;39.17;102399.50;4823447;29;20033;-78
2022/03/12 08:27:27;;;;;;;8.20;4.50;;;;;;;6.28;38.93;102420.84;4824677;29;20149;-78
2022/03/12 08:29:53;;;;;;;6.78;3.58;;;;;;;6.33;38.38;102415.97;4807363;29;20446;-78
2022/03/12 08:32:18;;;;;;;9.95;4.10;;;;;;;6.45;38.15;102417.56;4791782;29;20049;-78
2022/03/12 08:34:44;;;;;;;9.00;3.88;;;;;;;6.51;37.89;102416.19;4789878;29;20477;-78
2022/03/12 08:37:09;;;;;;;6.22;3.63;;;;;;;6.64;37.47;102413.31;4804992;29;20041;-78
2022/03/12 08:39:35;;;;;;;12.05;4.03;;;;;;;6.78;37.46;102412.94;4810540;29;20035;-78
2022/03/12 08:42:02;;;;;;;7.82;3.75;;;;;;;6.74;36.72;102400.81;4805522;29;20041;-77
2022/03/12 08:44:27;;;;;;;7.75;3.50;;;;;;;6.94;36.59;102409.78;4816980;29;20031;-78
2022/03/12 08:46:53;;;;;;;6.72;3.97;;;;;;;6.99;36.84;102381.63;4823366;29;20091;-78
2022/03/12 08:49:18;;;;;;;6.80;3.78;;;;;;;7.12;36.40;102405.47;4828410;29;20058;-78
2022/03/12 08:51:44;;;;;;;5.40;3.08;;;;;;;7.13;35.40;102399.13;4822094;29;20472;-79
2022/03/12 08:54:10;;;;;;;5.75;3.53;;;;;;;7.26;35.45;102410.41;4828200;29;20040;-78
2022/03/12 08:56:37;;;;;;;7.20;3.85;;;;;;;7.47;35.40;102409.47;4828251;29;20045;-79
2022/03/12 08:59:04;;;;;;;10.35;3.78;;;;;;;7.49;35.05;102408.34;4828120;29;20059;-79
2022/03/12 09:01:31;;;;;;;11.15;3.85;;;;;;;7.59;34.72;102410.19;4818793;29;20030;-77
2022/03/12 09:03:57;;;;;;;11.73;4.03;;;;;;;7.47;34.19;102399.59;4833257;29;20524;-79
2022/03/12 09:06:23;;;;;;;5.57;3.22;;;;;;;7.50;34.06;102396.63;4829481;29;20070;-80
2022/03/12 09:08:49;;;;;;;7.03;3.50;;;;;;;7.69;33.79;102403.84;4818996;29;20064;-79
2022/03/12 09:11:19;;;;;;;5.90;3.08;;;;;;;7.69;33.74;102393.13;4809887;29;20049;-79
2022/03/12 09:13:46;;;;;;;8.95;3.65;;;;;;;7.70;33.18;102410.88;4792107;29;20083;-79
2022/03/12 09:16:14;;;;;;;10.65;4.00;;;;;;;7.81;33.32;102415.25;4796728;29;20035;-80
2022/03/12 09:18:41;;;;;;;7.03;3.33;;;;;;;7.85;33.02;102411.31;4812837;29;20039;-78
2022/03/12 09:21:06;;;;;;;7.40;3.75;;;;;;;7.92;33.70;102415.13;4819676;29;20030;-80
2022/03/12 09:23:32;;;;;;;7.93;3.78;;;;;;;7.88;33.08;102394.09;4814831;29;20049;-80
2022/03/12 09:25:57;;;;;;;7.70;3.75;;;;;;;8.04;33.58;102406.91;4817201;29;20030;-78
2022/03/12 09:28:22;;;;;;;8.32;3.58;;;;;;;8.13;33.92;102411.41;4816739;29;20576;-79
2022/03/12 09:30:50;;;;;;;6.53;3.45;;;;;;;8.10;33.16;102400.97;4830182;29;20030;-78
2022/03/12 09:33:17;;;;;;;8.57;3.60;;;;;;;8.15;33.13;102396.88;4844776;29;20056;-78
2022/03/12 09:35:44;;;;;;;5.07;3.17;;;;;;;8.19;33.32;102381.34;4810307;29;20029;-77
2022/03/12 09:38:10;;;;;;;5.55;3.17;;;;;;;8.38;33.45;102400.13;4826753;29;20034;-78
2022/03/12 09:40:36;;;;;;;7.55;3.47;;;;;;;8.43;33.85;102381.72;4827844;29;20045;-79
2022/03/12 09:43:02;;;;;;;9.15;3.63;;;;;;;8.52;33.46;102382.69;4797646;29;20023;-78
2022/03/12 09:45:27;;;;;;;7.00;3.78;;;;;;;8.59;33.24;102383.78;4808361;29;20335;-78
2022/03/12 09:47:54;;;;;;;8.43;4.55;;;;;;;8.72;33.03;102393.34;4810383;29;20031;-79
2022/03/12 09:50:21;;;;;;;12.07;5.00;;;;;;;8.70;32.61;102378.22;4821959;29;20137;-79
2022/03/12 09:52:46;;;;;;;8.50;3.88;;;;;;;8.76;32.62;102384.84;4829301;29;20142;-79
2022/03/12 09:55:12;;;;;;;10.15;3.63;;;;;;;8.84;32.51;102389.47;4845055;29;20122;-79
2022/03/12 09:57:37;;;;;;;10.32;3.88;;;;;;;8.85;32.10;102372.38;4845516;29;20113;-79
2022/03/12 10:00:05;;;;;;;7.45;3.30;;;;;;;9.03;32.55;102385.84;4834550;29;20113;-78
2022/03/12 10:02:31;;;;;;;7.47;3.22;;;;;;;9.13;31.83;102381.25;4826995;29;20113;-78
2022/03/12 10:04:56;;;;;;;8.20;3.10;;;;;;;9.07;31.54;102360.38;4825858;29;20105;-78
2022/03/12 10:07:23;;;;;;;6.38;3.38;;;;;;;9.21;31.29;102369.78;4805996;29;20038;-79
2022/03/12 10:09:49;;;;;;;5.82;2.97;;;;;;;9.13;30.20;102368.66;4792369;29;20389;-78
2022/03/12 10:12:14;;;;;;;6.93;2.88;;;;;;;9.25;30.52;102373.84;4793618;29;20117;-78
2022/03/12 10:14:39;;;;;;;8.35;2.97;;;;;;;9.28;30.33;102369.00;4808935;29;20458;-78
2022/03/12 10:17:05;;;;;;;6.47;2.88;;;;;;;9.38;30.26;102375.16;4793193;29;20041;-79
2022/03/12 10:19:31;;;;;;;6.10;3.25;;;;;;;9.34;29.97;102346.91;4831835;29;20058;-79
2022/03/12 10:21:57;;;;;;;4.72;2.78;;;;;;;9.50;30.27;102358.78;4826035;29;20086;-78
2022/03/12 10:24:24;;;;;;;9.23;3.25;;;;;;;9.44;29.48;102345.97;4809994;29;20048;-79
2022/03/12 10:26:50;;;;;;;7.22;2.88;;;;;;;9.64;29.47;102340.28;4825789;29;20514;-80
2022/03/12 10:29:16;;;;;;;5.43;2.83;;;;;;;9.85;29.46;102345.31;4809292;29;20041;-79
2022/03/12 10:31:42;;;;;;;5.43;3.15;;;;;;;9.96;29.13;102352.28;4826406;29;20026;-79
2022/03/12 10:34:25;;;;;;;6.40;3.28;;;;;;;10.05;29.06;102363.94;4828720;29;20458;-78
2022/03/12 10:36:53;;;;;;;8.55;3.28;;;;;;;10.19;29.55;102357.97;4814266;29;20030;-80
2022/03/12 10:39:36;;;;;;;9.98;3.08;;;;;;;10.23;28.02;102353.13;4825406;29;20053;-79
2022/03/12 10:42:07;;;;;;;7.30;2.85;;;;;;;10.26;28.84;102360.91;4807170;29;20027;-79
2022/03/12 10:44:40;;;;;;;5.22;3.10;;;;;;;10.21;27.84;102357.84;4809084;29;20068;-78
2022/03/12 10:47:24;;;;;;;8.07;4.20;;;;;;;10.24;26.99;102347.59;4806977;29;20038;-79
2022/03/12 10:49:56;;;;;;;5.37;2.80;;;;;;;10.40;27.93;102356.78;4807226;29;20026;-78
2022/03/12 10:52:23;;;;;;;7.45;3.30;;;;;;;10.45;28.05;102349.94;4823166;29;20394;-79
2022/03/12 10:54:49;;;;;;;7.38;3.83;;;;;;;10.38;28.09;102326.53;4809909;29;20102;-79
2022/03/12 10:57:17;;;;;;;12.10;4.93;;;;;;;10.71;28.28;102341.81;4826039;29;20373;-79
2022/03/12 10:59:42;;;;;;;7.05;3.95;;;;;;;10.79;27.72;102340.97;4825684;29;20073;-79
2022/03/12 11:02:09;;;;;;;6.32;3.72;;;;;;;10.41;27.36;102285.84;4830198;29;20039;-79
2022/03/12 11:04:34;;;;;;;7.47;3.55;;;;;;;10.81;27.14;102337.13;4809260;29;20394;-79
2022/03/12 11:07:21;;;;;;;6.38;3.33;;;;;;;10.79;26.54;102328.41;4807664;29;20030;-79
2022/03/12 11:09:47;;;;;;;5.22;2.50;;;;;;;10.84;25.67;102325.19;4809415;29;20102;-78
2022/03/12 11:12:36;;;;;;;5.50;2.63;;;;;;;10.89;25.99;102327.38;4810441;29;20489;-78
2022/03/12 11:15:10;;;;;;;5.88;2.80;;;;;;;10.81;26.21;102315.59;4812466;29;20244;-81
2022/03/12 11:17:44;;;;;;;13.30;6.68;;;;;;;10.89;26.54;102333.59;4833998;29;20038;-81
2022/03/12 11:20:26;;;;;;;17.40;7.05;;;;;;;10.99;26.29;102333.47;4814050;29;20055;-82
2022/03/12 11:23:06;;;;;;;11.40;5.63;;;;;;;11.11;26.07;102332.16;4856085;29;20125;-81
2022/03/12 11:25:32;;;;;;;6.43;2.80;;;;;;;11.17;26.28;102342.28;4841632;29;20026;-83
2022/03/12 11:28:00;;;;;;;5.80;2.90;;;;;;;11.31;26.40;102331.88;4827547;29;20042;-82
2022/03/12 11:30:30;;;;;;;4.38;2.67;;;;;;;11.39;26.63;102338.13;4825336;29;20023;-83
2022/03/12 11:33:08;;;;;;;6.60;2.65;;;;;;;11.47;27.44;102337.28;4840795;29;20026;-81